Relevés horaires Beauvechain (Belgique)


Relevés horaires à Beauvechain - Mardi 28 Mars 2017
Heure UTC1 Température [°C] Vent [km/h] Hum. [%] Pres.4 [hPa] Visi. [Km] Nébu. [octa] Préc.5 [mm] Cond.
2m. Res. Ros. Dir.2 Vit. Moy. Raf.3
23:00 10.6 9.8 7.3 SO 7.4 -- 9.3 80 1025(0.9/3h) 20 -- -- --
22:00 11.0 10.7 6.8 SO 5.6 -- 7.4 75 1024.7(1.3/3h) 20 -- -- --
21:00 11.8 11.6 6.6 SO 5.6 -- 14.8 70 1024.5(1.7/3h) 20 -- -- NA
20:00 13.2 13.2 7.1 OSO 5.6 -- 11.1 66 1024(2.0/3h) 20 4/8 -- Il y a eu une averse de pluie à la station au cours de l'heure précédente, mais il n'y en a pas au moment de l'observation
19:00 14.6 14.5 6.4 OSO 7.4 -- 14.8 58 1023.2(1.4/3h) 20 4/8 -- --
18:00 16.1 15.8 5.7 OSO 11.1 -- 20.4 50 1022.3(0.8/3h) 20 4/8 -- --
17:00 17.5 17.5 5.1 OSO 11.1 -- 20.4 44 1021.6(0.0/3h) 20 2/8 -- --
16:00 18.0 18.0 5.6 OSO 11.1 -- 18.5 44 1021.6(-0.1/3h) 20 1/8 -- --
15:00 18.3 18.3 4.7 OSO 11.1 13.0 18.5 41 1021.3(-0.3/3h) 20 1/8 -- --
14:00 19.0 19.0 5.6 OSO 11.1 -- 18.5 41 1021.6(-0.1/3h) 20 1/8 -- --
13:00 18.7 18.7 6.3 SO 11.1 -- 16.7 44 1021.6(-0.3/3h) 20 1/8 -- --
12:00 18.8 18.8 7.0 OSO 7.4 -- 11.1 46 1021.7(0.1/3h) 20 1/8 -- --
11:00 17.6 17.6 6.2 SSO 3.7 -- 7.4 47 1021.8(0.5/3h) 20 1/8 -- --
10:00 16.6 16.6 4.7 SO 3.7 -- 7.4 45 1022.1(1.0/3h) 20 1/8 -- --
09:00 14.6 14.6 5.5 SSO 3.7 -- 7.4 54 1021.7(0.8/3h) 20 1/8 -- --
08:00 12.3 12.2 4.5 SSO 5.6 -- 7.4 59 1021.6(0.9/3h) 20 1/8 -- --
07:00 10.5 10.2 3.0 S 5.6 -- 5.6 60 1021.2(0.5/3h) 20 1/8 -- --
06:00 9.0 9.0 2.2 NNO 1.9 -- 3.7 62 1021.2(0.2/3h) 12 2/8 -- --
05:00 9.3 9.3 1.3 NNO 1.9 -- 3.7 57 1020.8(-0.1/3h) 12 2/8 -- --
04:00 10.7 10.7 0.2 SSO 3.7 -- 3.7 48 1020.7(-0.2/3h) 20 2/8 -- --
03:00 10.1 10.1 0.3 NNO 1.9 -- 1.9 50 1020.8(-0.2/3h) 20 -- -- --
02:00 10.3 10.3 -0.1 NNO 1.9 -- 1.9 48 1020.8(-0.2/3h) 20 -- -- --
01:00 10.6 10.6 -- NNO 1.9 -- 1.9 -- 1021(-0.3/3h) 20 -- -- --
00:00 10.4 10.4 0.2 NNO 1.9 -- 13.0 49 1021.2(-0.2/3h) 20 -- -- --

1 Coordinated Universal Time. Actuellement il est 20:00 locale et 18:00 UTC.

2 Le vent souffle depuis la direction indiquée vers la direction oposée.

3 Les rafales max. sont disponible 40 min après l'heure du relevé.

4 Pour les stations d'altitude (plus de 600m) le géopotentiel du niveau le plus proche de la pression obligatoire est indiqué.

5 Les stations disposant d'un diffuseur peuvent indiquer "trace". Cela signifie que des précipitations ont touchés le sol mais que la quantité est inférieure à 0.1 mm.

Récapitulatif de la journée
Température [°C] Vent [km/h] Ensoleillement4 [h] Precipitations totale5 [mm] Pression [Hpa]
Min1 Max.2 Moy.3 Max. Min Max.
8.5 19.3 13 20.4 0 h 0 min 0 1020.7 1025.0

1 Température minimale relevée entre 18:00 UTC la veille et 18:00 UTC le jour donné.

2 Température maximale relevée entre 06:00 UTC le jour donné et 06:00 UTC le lendemain.

3 Vent moyen de la journée basé sur les relevés horaires.

4 Ensoleillement en heures relevé entre 06:00 UTC la veille et 06:00 UTC le jour donné.

5 Précipitations totales tombées entre 06:00 UTC la jour donné et 06:00 UTC le lendemain.

Graphiques horaires